sensor_id;sensor_type;location;lat;lon;timestamp;pressure;altitude;pressure_sealevel;temperature;humidity
5905;BME280;2978;42.012;24.880;2023-02-01T00:01:11;98807.69;;;5.56;57.07
5905;BME280;2978;42.012;24.880;2023-02-01T00:03:37;98807.34;;;5.53;57.68
5905;BME280;2978;42.012;24.880;2023-02-01T00:06:02;98809.63;;;5.56;57.86
5905;BME280;2978;42.012;24.880;2023-02-01T00:08:28;98811.84;;;5.59;56.92
5905;BME280;2978;42.012;24.880;2023-02-01T00:11:08;98819.53;;;5.62;56.97
5905;BME280;2978;42.012;24.880;2023-02-01T00:13:37;98827.13;;;5.60;57.44
5905;BME280;2978;42.012;24.880;2023-02-01T00:16:10;98830.69;;;5.60;56.20
5905;BME280;2978;42.012;24.880;2023-02-01T00:18:37;98826.78;;;5.56;56.92
5905;BME280;2978;42.012;24.880;2023-02-01T00:21:03;98841.25;;;5.57;56.74
5905;BME280;2978;42.012;24.880;2023-02-01T00:23:32;98840.06;;;5.64;56.93
5905;BME280;2978;42.012;24.880;2023-02-01T00:26:00;98841.94;;;5.64;56.61
5905;BME280;2978;42.012;24.880;2023-02-01T00:28:25;98837.91;;;5.66;56.05
5905;BME280;2978;42.012;24.880;2023-02-01T00:31:01;98839.31;;;5.69;56.48
5905;BME280;2978;42.012;24.880;2023-02-01T00:33:27;98836.97;;;5.61;56.09
5905;BME280;2978;42.012;24.880;2023-02-01T00:36:01;98838.03;;;5.60;56.56
5905;BME280;2978;42.012;24.880;2023-02-01T00:38:28;98845.97;;;5.61;55.87
5905;BME280;2978;42.012;24.880;2023-02-01T00:40:54;98837.34;;;5.64;56.04
5905;BME280;2978;42.012;24.880;2023-02-01T00:43:19;98826.44;;;5.64;55.87
5905;BME280;2978;42.012;24.880;2023-02-01T00:45:46;98828.31;;;5.64;55.55
5905;BME280;2978;42.012;24.880;2023-02-01T00:48:11;98838.97;;;5.65;55.76
5905;BME280;2978;42.012;24.880;2023-02-01T00:50:41;98850.91;;;5.76;55.73
5905;BME280;2978;42.012;24.880;2023-02-01T00:53:08;98852.38;;;5.67;55.41
5905;BME280;2978;42.012;24.880;2023-02-01T00:55:34;98839.47;;;5.62;55.13
5905;BME280;2978;42.012;24.880;2023-02-01T00:57:59;98840.31;;;5.63;55.64
5905;BME280;2978;42.012;24.880;2023-02-01T01:00:25;98843.50;;;5.60;55.22
5905;BME280;2978;42.012;24.880;2023-02-01T01:02:50;98841.94;;;5.64;55.20
5905;BME280;2978;42.012;24.880;2023-02-01T01:05:16;98843.13;;;5.68;55.81
5905;BME280;2978;42.012;24.880;2023-02-01T01:07:41;98836.59;;;5.69;55.30
5905;BME280;2978;42.012;24.880;2023-02-01T01:10:07;98836.25;;;5.65;54.59
5905;BME280;2978;42.012;24.880;2023-02-01T01:12:32;98847.66;;;5.62;55.33
5905;BME280;2978;42.012;24.880;2023-02-01T01:14:58;98851.22;;;5.63;54.95
5905;BME280;2978;42.012;24.880;2023-02-01T01:17:23;98845.75;;;5.63;55.49
5905;BME280;2978;42.012;24.880;2023-02-01T01:19:49;98840.41;;;5.68;55.94
5905;BME280;2978;42.012;24.880;2023-02-01T01:22:14;98837.78;;;5.61;56.09
5905;BME280;2978;42.012;24.880;2023-02-01T01:24:40;98840.88;;;5.65;55.68
5905;BME280;2978;42.012;24.880;2023-02-01T01:27:05;98833.19;;;5.62;55.75
5905;BME280;2978;42.012;24.880;2023-02-01T01:29:30;98832.81;;;5.58;55.79
5905;BME280;2978;42.012;24.880;2023-02-01T01:31:56;98842.91;;;5.58;55.80
5905;BME280;2978;42.012;24.880;2023-02-01T01:34:21;98841.25;;;5.57;55.60
5905;BME280;2978;42.012;24.880;2023-02-01T01:36:47;98839.13;;;5.59;55.67
5905;BME280;2978;42.012;24.880;2023-02-01T01:39:12;98836.97;;;5.61;56.14
5905;BME280;2978;42.012;24.880;2023-02-01T01:41:37;98837.44;;;5.58;55.37
5905;BME280;2978;42.012;24.880;2023-02-01T01:44:06;98839.72;;;5.61;54.85
5905;BME280;2978;42.012;24.880;2023-02-01T01:46:35;98844.44;;;5.65;56.01
5905;BME280;2978;42.012;24.880;2023-02-01T01:49:17;98838.47;;;5.68;55.80
5905;BME280;2978;42.012;24.880;2023-02-01T01:51:49;98829.75;;;5.66;54.50
5905;BME280;2978;42.012;24.880;2023-02-01T01:54:28;98835.75;;;5.68;55.59
5905;BME280;2978;42.012;24.880;2023-02-01T01:57:00;98836.59;;;5.69;55.39
5905;BME280;2978;42.012;24.880;2023-02-01T01:59:27;98832.47;;;5.66;54.77
5905;BME280;2978;42.012;24.880;2023-02-01T02:01:53;98835.41;;;5.65;55.08
5905;BME280;2978;42.012;24.880;2023-02-01T02:04:19;98839.22;;;5.64;55.57
5905;BME280;2978;42.012;24.880;2023-02-01T02:07:06;98840.31;;;5.63;54.67
5905;BME280;2978;42.012;24.880;2023-02-01T02:09:33;98838.63;;;5.62;54.78
5905;BME280;2978;42.012;24.880;2023-02-01T02:11:59;98833.06;;;5.57;55.18
5905;BME280;2978;42.012;24.880;2023-02-01T02:14:25;98838.44;;;5.52;55.75
5905;BME280;2978;42.012;24.880;2023-02-01T02:17:13;98835.34;;;5.48;56.30
5905;BME280;2978;42.012;24.880;2023-02-01T02:28:24;98834.31;;;5.38;56.50
5905;BME280;2978;42.012;24.880;2023-02-01T02:44:49;98845.03;;;5.67;55.71
5905;BME280;2978;42.012;24.880;2023-02-01T02:48:00;98849.63;;;5.67;55.21
5905;BME280;2978;42.012;24.880;2023-02-01T02:50:34;98846.72;;;5.57;54.31
5905;BME280;2978;42.012;24.880;2023-02-01T02:53:34;98843.03;;;5.63;55.35
5905;BME280;2978;42.012;24.880;2023-02-01T02:56:21;98844.09;;;5.62;55.02
5905;BME280;2978;42.012;24.880;2023-02-01T02:59:08;98837.56;;;5.63;55.32
5905;BME280;2978;42.012;24.880;2023-02-01T03:01:55;98845.06;;;5.56;55.31
5905;BME280;2978;42.012;24.880;2023-02-01T03:04:39;98841.25;;;5.57;55.39
5905;BME280;2978;42.012;24.880;2023-02-01T03:13:09;98847.66;;;5.51;54.02
5905;BME280;2978;42.012;24.880;2023-02-01T03:15:38;98841.16;;;5.52;54.76
5905;BME280;2978;42.012;24.880;2023-02-01T03:18:12;98843.38;;;5.55;54.85
5905;BME280;2978;42.012;24.880;2023-02-01T03:20:41;98854.09;;;5.45;55.88
5905;BME280;2978;42.012;24.880;2023-02-01T03:23:08;98848.19;;;5.36;56.24
5905;BME280;2978;42.012;24.880;2023-02-01T03:25:35;98843.91;;;5.29;57.95
5905;BME280;2978;42.012;24.880;2023-02-01T03:28:07;98856.13;;;5.26;57.98
5905;BME280;2978;42.012;24.880;2023-02-01T03:30:42;98848.56;;;5.17;59.39
5905;BME280;2978;42.012;24.880;2023-02-01T03:33:19;98850.69;;;5.15;59.49
5905;BME280;2978;42.012;24.880;2023-02-01T03:38:32;98849.16;;;5.07;59.34
5905;BME280;2978;42.012;24.880;2023-02-01T03:41:12;98852.00;;;5.01;60.36
5905;BME280;2978;42.012;24.880;2023-02-01T03:46:32;98858.03;;;5.03;60.99
5905;BME280;2978;42.012;24.880;2023-02-01T03:49:02;98862.88;;;5.01;61.03
5905;BME280;2978;42.012;24.880;2023-02-01T03:51:29;98857.34;;;5.07;60.76
5905;BME280;2978;42.012;24.880;2023-02-01T03:53:57;98858.16;;;5.08;60.10
5905;BME280;2978;42.012;24.880;2023-02-01T03:56:24;98857.34;;;5.07;60.17
5905;BME280;2978;42.012;24.880;2023-02-01T03:58:52;98865.97;;;5.16;60.35
5905;BME280;2978;42.012;24.880;2023-02-01T04:01:25;98863.25;;;5.16;60.81
5905;BME280;2978;42.012;24.880;2023-02-01T04:03:51;98862.66;;;5.14;60.12
5905;BME280;2978;42.012;24.880;2023-02-01T04:06:17;98863.72;;;5.13;61.32
5905;BME280;2978;42.012;24.880;2023-02-01T04:08:42;98856.50;;;5.07;60.70
5905;BME280;2978;42.012;24.880;2023-02-01T04:11:08;98873.81;;;5.12;60.78
5905;BME280;2978;42.012;24.880;2023-02-01T04:13:33;98868.69;;;5.16;60.19
5905;BME280;2978;42.012;24.880;2023-02-01T04:15:59;98868.59;;;5.11;60.87
5905;BME280;2978;42.012;24.880;2023-02-01T04:18:24;98865.63;;;5.12;60.71
5905;BME280;2978;42.012;24.880;2023-02-01T04:20:49;98870.72;;;5.09;60.68
5905;BME280;2978;42.012;24.880;2023-02-01T04:23:15;98865.72;;;5.06;60.18
5905;BME280;2978;42.012;24.880;2023-02-01T04:25:41;98876.16;;;5.09;59.48
5905;BME280;2978;42.012;24.880;2023-02-01T04:28:06;98872.97;;;5.00;59.46
5905;BME280;2978;42.012;24.880;2023-02-01T04:30:32;98879.72;;;4.98;59.13
5905;BME280;2978;42.012;24.880;2023-02-01T04:32:58;98876.28;;;4.91;59.01
5905;BME280;2978;42.012;24.880;2023-02-01T04:35:23;98896.53;;;4.95;58.67
5905;BME280;2978;42.012;24.880;2023-02-01T04:37:49;98886.31;;;4.90;58.75
5905;BME280;2978;42.012;24.880;2023-02-01T04:40:14;98888.09;;;4.85;58.33
5905;BME280;2978;42.012;24.880;2023-02-01T04:42:40;98894.25;;;4.80;59.35
5905;BME280;2978;42.012;24.880;2023-02-01T04:45:06;98898.88;;;4.80;59.19
5905;BME280;2978;42.012;24.880;2023-02-01T04:47:31;98893.41;;;4.80;59.35
5905;BME280;2978;42.012;24.880;2023-02-01T04:49:57;98898.88;;;4.80;58.25
5905;BME280;2978;42.012;24.880;2023-02-01T04:52:22;98914.75;;;4.83;58.66
5905;BME280;2978;42.012;24.880;2023-02-01T04:54:47;98908.00;;;4.74;58.09
5905;BME280;2978;42.012;24.880;2023-02-01T04:57:13;98907.50;;;4.65;57.30
5905;BME280;2978;42.012;24.880;2023-02-01T04:59:40;98907.81;;;4.57;58.23
5905;BME280;2978;42.012;24.880;2023-02-01T05:02:05;98908.75;;;4.51;58.36
5905;BME280;2978;42.012;24.880;2023-02-01T05:04:31;98899.63;;;4.45;58.56
5905;BME280;2978;42.012;24.880;2023-02-01T05:06:56;98905.69;;;4.47;58.23
5905;BME280;2978;42.012;24.880;2023-02-01T05:09:22;98909.91;;;4.43;58.05
5905;BME280;2978;42.012;24.880;2023-02-01T05:11:47;98915.84;;;4.40;58.44
5905;BME280;2978;42.012;24.880;2023-02-01T05:14:31;98914.63;;;4.36;57.98
5905;BME280;2978;42.012;24.880;2023-02-01T05:16:56;98903.25;;;4.28;58.23
5905;BME280;2978;42.012;24.880;2023-02-01T05:19:22;98915.56;;;4.30;57.88
5905;BME280;2978;42.012;24.880;2023-02-01T05:21:47;98908.22;;;4.31;58.02
5905;BME280;2978;42.012;24.880;2023-02-01T05:24:13;98912.50;;;4.38;56.72
5905;BME280;2978;42.012;24.880;2023-02-01T05:26:42;98906.59;;;4.41;57.02
5905;BME280;2978;42.012;24.880;2023-02-01T05:29:09;98902.72;;;4.49;56.32
5905;BME280;2978;42.012;24.880;2023-02-01T05:31:35;98907.31;;;4.48;55.72
5905;BME280;2978;42.012;24.880;2023-02-01T05:34:01;98912.66;;;4.55;55.97
5905;BME280;2978;42.012;24.880;2023-02-01T05:36:26;98900.50;;;4.57;55.63
5905;BME280;2978;42.012;24.880;2023-02-01T05:38:52;98916.63;;;4.71;54.73
5905;BME280;2978;42.012;24.880;2023-02-01T05:41:18;98918.19;;;4.90;54.55
5905;BME280;2978;42.012;24.880;2023-02-01T05:43:43;98908.94;;;5.02;54.65
5905;BME280;2978;42.012;24.880;2023-02-01T05:46:08;98907.91;;;5.15;53.37
5905;BME280;2978;42.012;24.880;2023-02-01T05:48:41;98912.53;;;5.26;52.58
5905;BME280;2978;42.012;24.880;2023-02-01T05:51:08;98912.06;;;5.40;51.28
5905;BME280;2978;42.012;24.880;2023-02-01T05:53:33;98915.47;;;5.47;50.92
5905;BME280;2978;42.012;24.880;2023-02-01T05:55:59;98913.34;;;5.61;50.69
5905;BME280;2978;42.012;24.880;2023-02-01T05:58:24;98907.34;;;5.75;49.96
5905;BME280;2978;42.012;24.880;2023-02-01T06:00:51;98914.13;;;5.85;49.13
5905;BME280;2978;42.012;24.880;2023-02-01T06:03:16;98917.09;;;5.83;48.82
5905;BME280;2978;42.012;24.880;2023-02-01T06:05:44;98909.53;;;5.85;49.04
5905;BME280;2978;42.012;24.880;2023-02-01T06:08:09;98907.00;;;5.95;48.79
5905;BME280;2978;42.012;24.880;2023-02-01T06:10:35;98911.25;;;6.03;49.48
5905;BME280;2978;42.012;24.880;2023-02-01T06:13:00;98911.59;;;6.06;48.66
5905;BME280;2978;42.012;24.880;2023-02-01T06:15:25;98909.56;;;6.02;48.43
5905;BME280;2978;42.012;24.880;2023-02-01T06:17:51;98902.72;;;5.99;48.68
5905;BME280;2978;42.012;24.880;2023-02-01T06:20:17;98907.09;;;6.00;47.35
5905;BME280;2978;42.012;24.880;2023-02-01T06:22:42;98906.94;;;6.07;47.80
5905;BME280;2978;42.012;24.880;2023-02-01T06:25:09;98906.63;;;6.03;48.01
5905;BME280;2978;42.012;24.880;2023-02-01T06:27:35;98903.31;;;6.01;47.68
5905;BME280;2978;42.012;24.880;2023-02-01T06:30:01;98904.81;;;6.09;47.52
5905;BME280;2978;42.012;24.880;2023-02-01T06:32:26;98900.78;;;6.11;47.40
5905;BME280;2978;42.012;24.880;2023-02-01T06:34:52;98897.75;;;6.24;46.88
5905;BME280;2978;42.012;24.880;2023-02-01T06:37:18;98893.81;;;6.32;45.89
5905;BME280;2978;42.012;24.880;2023-02-01T06:39:44;98901.16;;;6.31;46.55
5905;BME280;2978;42.012;24.880;2023-02-01T06:42:09;98902.91;;;6.37;46.55
5905;BME280;2978;42.012;24.880;2023-02-01T06:44:34;98900.28;;;6.42;45.84
5905;BME280;2978;42.012;24.880;2023-02-01T06:47:00;98909.56;;;6.58;45.74
5905;BME280;2978;42.012;24.880;2023-02-01T06:49:25;98912.47;;;6.68;44.85
5905;BME280;2978;42.012;24.880;2023-02-01T06:51:51;98911.41;;;6.69;45.25
5905;BME280;2978;42.012;24.880;2023-02-01T06:54:16;98922.44;;;6.74;44.51
5905;BME280;2978;42.012;24.880;2023-02-01T06:56:41;98918.47;;;6.81;44.93
5905;BME280;2978;42.012;24.880;2023-02-01T06:59:07;98925.84;;;6.98;44.82
5905;BME280;2978;42.012;24.880;2023-02-01T07:01:33;98917.91;;;7.13;44.32
5905;BME280;2978;42.012;24.880;2023-02-01T07:03:59;98925.69;;;7.21;44.99
5905;BME280;2978;42.012;24.880;2023-02-01T07:06:25;98930.88;;;7.22;43.63
5905;BME280;2978;42.012;24.880;2023-02-01T07:08:50;98901.50;;;7.13;43.83
5905;BME280;2978;42.012;24.880;2023-02-01T07:11:17;98927.25;;;7.33;44.50
5905;BME280;2978;42.012;24.880;2023-02-01T07:13:43;98930.78;;;7.50;44.85
5905;BME280;2978;42.012;24.880;2023-02-01T07:16:16;98941.72;;;7.67;44.10
5905;BME280;2978;42.012;24.880;2023-02-01T07:18:42;98939.19;;;7.82;43.94
5905;BME280;2978;42.012;24.880;2023-02-01T07:21:08;98948.09;;;7.94;44.06
5905;BME280;2978;42.012;24.880;2023-02-01T07:23:33;98935.81;;;7.96;43.54
5905;BME280;2978;42.012;24.880;2023-02-01T07:26:02;98935.56;;;7.98;43.37
5905;BME280;2978;42.012;24.880;2023-02-01T07:28:30;98952.56;;;8.00;42.72
5905;BME280;2978;42.012;24.880;2023-02-01T07:31:05;98947.97;;;7.84;43.45
5905;BME280;2978;42.012;24.880;2023-02-01T07:33:31;98947.91;;;7.79;43.74
5905;BME280;2978;42.012;24.880;2023-02-01T07:35:57;98937.53;;;7.81;43.11
5905;BME280;2978;42.012;24.880;2023-02-01T07:38:22;98947.97;;;7.84;43.68
5905;BME280;2978;42.012;24.880;2023-02-01T07:40:49;98950.00;;;7.72;43.84
5905;BME280;2978;42.012;24.880;2023-02-01T07:43:14;98945.50;;;7.66;43.39
5905;BME280;2978;42.012;24.880;2023-02-01T07:45:40;98954.31;;;7.68;43.98
5905;BME280;2978;42.012;24.880;2023-02-01T07:48:05;98944.66;;;7.65;44.18
5905;BME280;2978;42.012;24.880;2023-02-01T07:50:31;98957.09;;;7.73;44.54
5905;BME280;2978;42.012;24.880;2023-02-01T07:52:59;98960.81;;;7.83;44.62
5905;BME280;2978;42.012;24.880;2023-02-01T07:55:25;98953.97;;;8.02;43.89
5905;BME280;2978;42.012;24.880;2023-02-01T07:57:51;98951.31;;;8.29;43.34
5905;BME280;2978;42.012;24.880;2023-02-01T08:00:17;98956.91;;;8.39;43.56
5905;BME280;2978;42.012;24.880;2023-02-01T08:03:01;98947.84;;;8.60;43.20
5905;BME280;2978;42.012;24.880;2023-02-01T08:05:28;98943.88;;;8.73;43.05
5905;BME280;2978;42.012;24.880;2023-02-01T08:07:53;98939.03;;;8.58;43.57
5905;BME280;2978;42.012;24.880;2023-02-01T08:10:19;98939.56;;;8.55;44.07
5905;BME280;2978;42.012;24.880;2023-02-01T08:12:45;98936.00;;;8.55;44.57
5905;BME280;2978;42.012;24.880;2023-02-01T08:15:16;98948.41;;;8.62;43.55
5905;BME280;2978;42.012;24.880;2023-02-01T08:17:48;98928.66;;;8.60;43.80
5905;BME280;2978;42.012;24.880;2023-02-01T08:20:14;98952.53;;;8.65;43.80
5905;BME280;2978;42.012;24.880;2023-02-01T08:22:39;98953.84;;;8.57;43.59
5905;BME280;2978;42.012;24.880;2023-02-01T08:25:05;98949.94;;;8.53;44.31
5905;BME280;2978;42.012;24.880;2023-02-01T08:27:33;98953.00;;;8.57;44.25
5905;BME280;2978;42.012;24.880;2023-02-01T08:29:58;98952.22;;;8.61;44.07
5905;BME280;2978;42.012;24.880;2023-02-01T08:32:25;98961.59;;;8.65;43.96
5905;BME280;2978;42.012;24.880;2023-02-01T08:34:50;98957.84;;;8.71;43.39
5905;BME280;2978;42.012;24.880;2023-02-01T08:37:15;98964.00;;;8.83;43.87
5905;BME280;2978;42.012;24.880;2023-02-01T08:39:41;98955.28;;;8.91;43.92
5905;BME280;2978;42.012;24.880;2023-02-01T08:42:08;98956.56;;;9.10;43.57
5905;BME280;2978;42.012;24.880;2023-02-01T08:44:52;98966.66;;;9.05;43.12
5905;BME280;2978;42.012;24.880;2023-02-01T08:47:18;98962.00;;;9.05;42.47
5905;BME280;2978;42.012;24.880;2023-02-01T08:49:43;98965.31;;;9.07;42.96
5905;BME280;2978;42.012;24.880;2023-02-01T08:52:09;98951.00;;;9.00;42.55
5905;BME280;2978;42.012;24.880;2023-02-01T08:54:34;98967.34;;;8.90;42.64
5905;BME280;2978;42.012;24.880;2023-02-01T08:57:00;98967.09;;;8.92;42.93
5905;BME280;2978;42.012;24.880;2023-02-01T08:59:25;98957.63;;;9.04;43.15
5905;BME280;2978;42.012;24.880;2023-02-01T09:01:50;98959.00;;;9.07;43.03
5905;BME280;2978;42.012;24.880;2023-02-01T09:04:16;98962.38;;;9.19;42.30
5905;BME280;2978;42.012;24.880;2023-02-01T09:06:41;98956.13;;;9.24;42.21
5905;BME280;2978;42.012;24.880;2023-02-01T09:09:07;98956.41;;;9.22;41.99
5905;BME280;2978;42.012;24.880;2023-02-01T09:11:32;98952.81;;;9.22;42.25
5905;BME280;2978;42.012;24.880;2023-02-01T09:13:57;98949.16;;;9.11;42.64
5905;BME280;2978;42.012;24.880;2023-02-01T09:16:23;98950.41;;;8.98;42.62
5905;BME280;2978;42.012;24.880;2023-02-01T09:18:51;98939.56;;;8.82;42.45
5905;BME280;2978;42.012;24.880;2023-02-01T09:21:17;98939.22;;;8.73;43.63
5905;BME280;2978;42.012;24.880;2023-02-01T09:23:42;98954.84;;;8.73;43.38
5905;BME280;2978;42.012;24.880;2023-02-01T09:26:08;98937.88;;;8.76;43.47
5905;BME280;2978;42.012;24.880;2023-02-01T09:28:34;98927.94;;;8.70;43.38
5905;BME280;2978;42.012;24.880;2023-02-01T09:31:01;98941.25;;;8.61;43.97
5905;BME280;2978;42.012;24.880;2023-02-01T09:33:27;98931.91;;;8.57;43.35
5905;BME280;2978;42.012;24.880;2023-02-01T09:36:02;98922.06;;;8.61;43.13
5905;BME280;2978;42.012;24.880;2023-02-01T09:38:29;98923.22;;;8.65;43.11
5905;BME280;2978;42.012;24.880;2023-02-01T09:40:55;98928.75;;;8.70;43.49
5905;BME280;2978;42.012;24.880;2023-02-01T09:46:26;98923.44;;;8.85;43.70
5905;BME280;2978;42.012;24.880;2023-02-01T09:49:04;98912.47;;;8.85;43.24
5905;BME280;2978;42.012;24.880;2023-02-01T09:51:36;98926.69;;;8.82;43.39
5905;BME280;2978;42.012;24.880;2023-02-01T09:56:42;98903.81;;;8.72;43.46
5905;BME280;2978;42.012;24.880;2023-02-01T10:01:49;98897.31;;;8.78;44.19
5905;BME280;2978;42.012;24.880;2023-02-01T10:04:16;98904.28;;;8.90;43.16
5905;BME280;2978;42.012;24.880;2023-02-01T10:10:28;98907.03;;;9.22;42.86
5905;BME280;2978;42.012;24.880;2023-02-01T10:16:08;98900.25;;;9.35;43.10
5905;BME280;2978;42.012;24.880;2023-02-01T10:18:49;98889.25;;;9.35;42.98
5905;BME280;2978;42.012;24.880;2023-02-01T10:27:02;98894.25;;;9.38;43.37
5905;BME280;2978;42.012;24.880;2023-02-01T10:29:34;98881.75;;;9.57;43.61
5905;BME280;2978;42.012;24.880;2023-02-01T10:32:02;98887.81;;;9.64;43.24
5905;BME280;2978;42.012;24.880;2023-02-01T10:34:34;98886.13;;;9.58;42.80
5905;BME280;2978;42.012;24.880;2023-02-01T10:39:27;98872.44;;;9.63;43.10
5905;BME280;2978;42.012;24.880;2023-02-01T10:41:54;98863.69;;;9.66;43.35
5905;BME280;2978;42.012;24.880;2023-02-01T10:44:26;98858.25;;;9.76;42.60
5905;BME280;2978;42.012;24.880;2023-02-01T10:46:53;98852.25;;;9.89;42.47
5905;BME280;2978;42.012;24.880;2023-02-01T10:52:02;98857.25;;;9.97;42.46
5905;BME280;2978;42.012;24.880;2023-02-01T10:54:33;98857.53;;;10.00;42.49
5905;BME280;2978;42.012;24.880;2023-02-01T10:56:59;98860.50;;;9.99;42.83
5905;BME280;2978;42.012;24.880;2023-02-01T10:59:28;98851.75;;;10.02;42.44
5905;BME280;2978;42.012;24.880;2023-02-01T11:02:02;98853.09;;;9.94;42.92
5905;BME280;2978;42.012;24.880;2023-02-01T11:04:34;98849.00;;;9.97;42.96
5905;BME280;2978;42.012;24.880;2023-02-01T11:07:16;98834.72;;;9.95;43.05
5905;BME280;2978;42.012;24.880;2023-02-01T11:09:48;98829.78;;;10.02;43.27
5905;BME280;2978;42.012;24.880;2023-02-01T11:12:43;98844.94;;;10.09;42.89
5905;BME280;2978;42.012;24.880;2023-02-01T11:15:20;98802.84;;;9.99;42.77
5905;BME280;2978;42.012;24.880;2023-02-01T11:17:47;98820.69;;;9.86;43.34
5905;BME280;2978;42.012;24.880;2023-02-01T11:20:19;98810.72;;;9.70;43.71
5905;BME280;2978;42.012;24.880;2023-02-01T11:22:53;98811.00;;;9.74;43.78
5905;BME280;2978;42.012;24.880;2023-02-01T11:25:20;98831.06;;;9.74;43.74
5905;BME280;2978;42.012;24.880;2023-02-01T11:27:47;98822.00;;;9.74;44.02
5905;BME280;2978;42.012;24.880;2023-02-01T11:30:19;98804.44;;;9.80;43.92
5905;BME280;2978;42.012;24.880;2023-02-01T11:32:48;98813.50;;;9.80;43.43
5905;BME280;2978;42.012;24.880;2023-02-01T11:35:19;98804.97;;;9.77;43.82
5905;BME280;2978;42.012;24.880;2023-02-01T11:37:57;98817.63;;;9.83;43.56
5905;BME280;2978;42.012;24.880;2023-02-01T11:40:35;98798.72;;;9.96;43.27
5905;BME280;2978;42.012;24.880;2023-02-01T11:43:08;98791.06;;;10.03;43.07
5905;BME280;2978;42.012;24.880;2023-02-01T11:45:35;98803.50;;;10.16;43.09
5905;BME280;2978;42.012;24.880;2023-02-01T11:48:07;98794.16;;;10.27;42.96
5905;BME280;2978;42.012;24.880;2023-02-01T11:53:24;98793.06;;;10.18;42.27
5905;BME280;2978;42.012;24.880;2023-02-01T11:56:11;98775.47;;;10.19;42.24
5905;BME280;2978;42.012;24.880;2023-02-01T11:59:11;98785.41;;;10.45;42.13
5905;BME280;2978;42.012;24.880;2023-02-01T12:04:51;98777.72;;;10.37;41.96
5905;BME280;2978;42.012;24.880;2023-02-01T12:07:46;98793.09;;;10.43;42.14
5905;BME280;2978;42.012;24.880;2023-02-01T12:13:02;98786.22;;;10.51;41.63
5905;BME280;2978;42.012;24.880;2023-02-01T12:18:59;98786.50;;;10.59;41.77
5905;BME280;2978;42.012;24.880;2023-02-01T12:29:48;98782.66;;;10.50;41.75
5905;BME280;2978;42.012;24.880;2023-02-01T12:46:15;98762.59;;;10.55;41.05
5905;BME280;2978;42.012;24.880;2023-02-01T12:51:23;98756.25;;;10.64;40.23
5905;BME280;2978;42.012;24.880;2023-02-01T12:53:59;98752.16;;;10.67;40.62
5905;BME280;2978;42.012;24.880;2023-02-01T12:56:38;98765.06;;;10.66;40.68
5905;BME280;2978;42.012;24.880;2023-02-01T13:02:04;98770.53;;;10.91;40.27
5905;BME280;2978;42.012;24.880;2023-02-01T13:04:44;98779.34;;;10.88;39.97
5905;BME280;2978;42.012;24.880;2023-02-01T13:07:18;98769.16;;;10.89;40.32
5905;BME280;2978;42.012;24.880;2023-02-01T13:12:44;98780.41;;;11.07;39.71
5905;BME280;2978;42.012;24.880;2023-02-01T13:15:36;98766.13;;;11.10;39.75
5905;BME280;2978;42.012;24.880;2023-02-01T13:18:05;98770.25;;;11.08;40.31
5905;BME280;2978;42.012;24.880;2023-02-01T13:20:46;98772.16;;;11.17;40.83
5905;BME280;2978;42.012;24.880;2023-02-01T13:23:39;98771.34;;;11.12;40.65
5905;BME280;2978;42.012;24.880;2023-02-01T13:26:05;98776.56;;;10.93;41.20
5905;BME280;2978;42.012;24.880;2023-02-01T13:37:37;98789.53;;;10.58;42.09
5905;BME280;2978;42.012;24.880;2023-02-01T13:45:22;98766.16;;;10.50;41.95
5905;BME280;2978;42.012;24.880;2023-02-01T13:47:52;98789.25;;;10.49;41.91
5905;BME280;2978;42.012;24.880;2023-02-01T13:50:24;98775.50;;;10.54;41.26
5905;BME280;2978;42.012;24.880;2023-02-01T13:56:16;98770.03;;;10.49;40.16
5905;BME280;2978;42.012;24.880;2023-02-01T13:58:44;98774.41;;;10.50;40.10
5905;BME280;2978;42.012;24.880;2023-02-01T14:16:44;98797.44;;;10.24;40.50
5905;BME280;2978;42.012;24.880;2023-02-01T14:19:32;98803.50;;;10.26;40.16
5905;BME280;2978;42.012;24.880;2023-02-01T14:24:51;98797.44;;;10.24;39.80
5905;BME280;2978;42.012;24.880;2023-02-01T14:27:22;98801.59;;;10.22;39.52
5905;BME280;2978;42.012;24.880;2023-02-01T14:29:56;98801.31;;;10.28;40.01
5905;BME280;2978;42.012;24.880;2023-02-01T14:32:25;98816.41;;;10.31;39.85
5905;BME280;2978;42.012;24.880;2023-02-01T14:34:54;98801.88;;;10.25;39.96
5905;BME280;2978;42.012;24.880;2023-02-01T14:42:28;98780.91;;;10.04;40.02
5905;BME280;2978;42.012;24.880;2023-02-01T14:47:46;98784.44;;;9.94;39.93
5905;BME280;2978;42.012;24.880;2023-02-01T14:50:31;98778.66;;;9.91;40.21
5905;BME280;2978;42.012;24.880;2023-02-01T14:55:45;98790.69;;;9.80;40.72
5905;BME280;2978;42.012;24.880;2023-02-01T15:01:17;98797.00;;;9.75;40.77
5905;BME280;2978;42.012;24.880;2023-02-01T15:06:36;98797.22;;;9.59;40.91
5905;BME280;2978;42.012;24.880;2023-02-01T15:14:45;98807.09;;;9.55;41.51
5905;BME280;2978;42.012;24.880;2023-02-01T15:17:24;98812.00;;;9.53;41.43
5905;BME280;2978;42.012;24.880;2023-02-01T15:20:00;98804.81;;;9.47;41.46
5905;BME280;2978;42.012;24.880;2023-02-01T15:22:27;98825.13;;;9.41;42.19
5905;BME280;2978;42.012;24.880;2023-02-01T15:24:58;98820.25;;;9.53;42.03
5905;BME280;2978;42.012;24.880;2023-02-01T15:27:25;98825.50;;;9.64;42.10
5905;BME280;2978;42.012;24.880;2023-02-01T15:29:51;98817.47;;;9.48;42.03
5905;BME280;2978;42.012;24.880;2023-02-01T15:32:36;98812.53;;;9.45;42.46
5905;BME280;2978;42.012;24.880;2023-02-01T15:35:04;98819.06;;;9.39;41.97
5905;BME280;2978;42.012;24.880;2023-02-01T15:37:31;98809.72;;;9.40;41.83
5905;BME280;2978;42.012;24.880;2023-02-01T15:42:48;98809.81;;;9.50;41.83
5905;BME280;2978;42.012;24.880;2023-02-01T15:45:40;98816.91;;;9.46;41.60
5905;BME280;2978;42.012;24.880;2023-02-01T15:48:18;98816.03;;;9.35;42.02
5905;BME280;2978;42.012;24.880;2023-02-01T15:50:45;98820.91;;;9.28;42.12
5905;BME280;2978;42.012;24.880;2023-02-01T15:56:52;98827.19;;;9.19;42.02
5905;BME280;2978;42.012;24.880;2023-02-01T15:59:42;98823.84;;;9.12;41.50
5905;BME280;2978;42.012;24.880;2023-02-01T16:02:36;98828.72;;;9.04;41.95
5905;BME280;2978;42.012;24.880;2023-02-01T16:05:06;98829.25;;;9.01;41.56
5905;BME280;2978;42.012;24.880;2023-02-01T16:08:17;98833.91;;;9.01;40.49
5905;BME280;2978;42.012;24.880;2023-02-01T16:10:46;98833.72;;;9.13;40.28
5905;BME280;2978;42.012;24.880;2023-02-01T16:13:12;98835.41;;;9.19;40.51
5905;BME280;2978;42.012;24.880;2023-02-01T16:15:38;98827.66;;;9.10;39.78
5905;BME280;2978;42.012;24.880;2023-02-01T16:18:05;98825.72;;;9.06;39.79
5905;BME280;2978;42.012;24.880;2023-02-01T16:20:33;98831.78;;;9.08;40.17